sensor_id;sensor_type;location;lat;lon;timestamp;temperature;humidity
3344;DHT22;1685;53.104;8.228;2023-03-01T00:00:43;-0.80;99.90
3344;DHT22;1685;53.104;8.228;2023-03-01T00:05:44;-0.90;99.90
3344;DHT22;1685;53.104;8.228;2023-03-01T00:08:11;-0.40;99.90
3344;DHT22;1685;53.104;8.228;2023-03-01T00:10:38;-0.80;99.90
3344;DHT22;1685;53.104;8.228;2023-03-01T00:13:05;-0.90;99.90
3344;DHT22;1685;53.104;8.228;2023-03-01T00:15:32;-0.80;99.90
3344;DHT22;1685;53.104;8.228;2023-03-01T00:18:00;-0.90;99.90
3344;DHT22;1685;53.104;8.228;2023-03-01T00:22:55;-1.00;99.90
3344;DHT22;1685;53.104;8.228;2023-03-01T00:25:22;-1.00;99.90
3344;DHT22;1685;53.104;8.228;2023-03-01T00:27:48;-1.00;99.90
3344;DHT22;1685;53.104;8.228;2023-03-01T00:30:15;-1.00;99.90
3344;DHT22;1685;53.104;8.228;2023-03-01T00:32:42;-1.10;99.90
3344;DHT22;1685;53.104;8.228;2023-03-01T00:35:09;-1.10;99.90
3344;DHT22;1685;53.104;8.228;2023-03-01T00:37:36;-1.10;99.90
3344;DHT22;1685;53.104;8.228;2023-03-01T00:40:05;-1.20;99.90
3344;DHT22;1685;53.104;8.228;2023-03-01T00:42:32;-1.10;99.90
3344;DHT22;1685;53.104;8.228;2023-03-01T00:47:28;-1.20;99.90
3344;DHT22;1685;53.104;8.228;2023-03-01T00:49:55;-1.20;99.90
3344;DHT22;1685;53.104;8.228;2023-03-01T00:52:21;-1.20;99.90
3344;DHT22;1685;53.104;8.228;2023-03-01T00:54:48;-1.30;99.90
3344;DHT22;1685;53.104;8.228;2023-03-01T00:57:19;-1.30;99.90
3344;DHT22;1685;53.104;8.228;2023-03-01T01:04:40;-1.30;99.90
3344;DHT22;1685;53.104;8.228;2023-03-01T01:09:34;-1.30;99.90
3344;DHT22;1685;53.104;8.228;2023-03-01T01:14:30;-1.30;99.90
3344;DHT22;1685;53.104;8.228;2023-03-01T01:16:57;-1.30;99.90
3344;DHT22;1685;53.104;8.228;2023-03-01T01:19:25;-1.40;99.90
3344;DHT22;1685;53.104;8.228;2023-03-01T01:21:52;-1.40;99.90
3344;DHT22;1685;53.104;8.228;2023-03-01T01:24:19;-1.30;99.90
3344;DHT22;1685;53.104;8.228;2023-03-01T01:26:46;-1.00;99.90
3344;DHT22;1685;53.104;8.228;2023-03-01T01:29:13;-1.50;99.90
3344;DHT22;1685;53.104;8.228;2023-03-01T01:31:42;-1.50;99.90
3344;DHT22;1685;53.104;8.228;2023-03-01T01:34:13;-1.60;99.90
3344;DHT22;1685;53.104;8.228;2023-03-01T01:36:41;-1.50;99.90
3344;DHT22;1685;53.104;8.228;2023-03-01T01:39:07;-1.50;99.90
3344;DHT22;1685;53.104;8.228;2023-03-01T01:41:39;-1.50;99.90
3344;DHT22;1685;53.104;8.228;2023-03-01T01:44:18;-1.60;99.90
3344;DHT22;1685;53.104;8.228;2023-03-01T01:46:49;-1.60;99.90
3344;DHT22;1685;53.104;8.228;2023-03-01T01:49:20;-1.50;99.90
3344;DHT22;1685;53.104;8.228;2023-03-01T01:51:51;-1.70;99.90
3344;DHT22;1685;53.104;8.228;2023-03-01T01:54:24;-1.80;99.90
3344;DHT22;1685;53.104;8.228;2023-03-01T01:56:54;-1.80;99.90
3344;DHT22;1685;53.104;8.228;2023-03-01T01:59:23;-1.70;99.90
3344;DHT22;1685;53.104;8.228;2023-03-01T02:01:52;-1.80;99.90
3344;DHT22;1685;53.104;8.228;2023-03-01T02:04:19;-1.90;99.90
3344;DHT22;1685;53.104;8.228;2023-03-01T02:06:51;-1.80;99.90
3344;DHT22;1685;53.104;8.228;2023-03-01T02:09:22;-1.90;99.90
3344;DHT22;1685;53.104;8.228;2023-03-01T02:11:50;-1.80;99.90
3344;DHT22;1685;53.104;8.228;2023-03-01T02:14:17;-1.80;99.90
3344;DHT22;1685;53.104;8.228;2023-03-01T02:16:44;-1.80;99.90
3344;DHT22;1685;53.104;8.228;2023-03-01T02:19:18;-1.90;99.90
3344;DHT22;1685;53.104;8.228;2023-03-01T02:21:55;-1.90;99.90
3344;DHT22;1685;53.104;8.228;2023-03-01T02:24:30;-1.90;99.90
3344;DHT22;1685;53.104;8.228;2023-03-01T02:27:00;-2.00;99.90
3344;DHT22;1685;53.104;8.228;2023-03-01T02:29:29;-1.90;99.90
3344;DHT22;1685;53.104;8.228;2023-03-01T02:31:58;-2.00;99.90
3344;DHT22;1685;53.104;8.228;2023-03-01T02:34:27;-2.10;99.90
3344;DHT22;1685;53.104;8.228;2023-03-01T02:36:57;-2.10;99.90
3344;DHT22;1685;53.104;8.228;2023-03-01T02:39:30;-2.10;99.90
3344;DHT22;1685;53.104;8.228;2023-03-01T02:44:25;-2.10;99.90
3344;DHT22;1685;53.104;8.228;2023-03-01T02:46:55;-2.10;99.90
3344;DHT22;1685;53.104;8.228;2023-03-01T02:49:25;-2.10;99.90
3344;DHT22;1685;53.104;8.228;2023-03-01T02:52:28;-2.10;99.90
3344;DHT22;1685;53.104;8.228;2023-03-01T02:55:00;-2.10;99.90
3344;DHT22;1685;53.104;8.228;2023-03-01T02:57:28;-2.10;99.90
3344;DHT22;1685;53.104;8.228;2023-03-01T02:59:56;-2.10;99.90
3344;DHT22;1685;53.104;8.228;2023-03-01T03:02:26;-2.10;99.90
3344;DHT22;1685;53.104;8.228;2023-03-01T03:05:04;-2.10;99.90
3344;DHT22;1685;53.104;8.228;2023-03-01T03:07:32;-2.20;99.90
3344;DHT22;1685;53.104;8.228;2023-03-01T03:09:59;-2.10;99.90
3344;DHT22;1685;53.104;8.228;2023-03-01T03:19:48;-2.20;99.90
3344;DHT22;1685;53.104;8.228;2023-03-01T03:22:15;-2.30;99.90
3344;DHT22;1685;53.104;8.228;2023-03-01T03:24:42;-2.30;99.90
3344;DHT22;1685;53.104;8.228;2023-03-01T03:32:03;-2.30;99.90
3344;DHT22;1685;53.104;8.228;2023-03-01T03:36:58;-2.30;99.90
3344;DHT22;1685;53.104;8.228;2023-03-01T03:44:20;-2.30;99.90
3344;DHT22;1685;53.104;8.228;2023-03-01T03:46:47;-2.50;99.90
3344;DHT22;1685;53.104;8.228;2023-03-01T03:54:09;-2.50;99.90
3344;DHT22;1685;53.104;8.228;2023-03-01T03:56:36;-2.30;99.90
3344;DHT22;1685;53.104;8.228;2023-03-01T03:59:03;-2.40;99.90
3344;DHT22;1685;53.104;8.228;2023-03-01T04:06:29;-2.50;99.90
3344;DHT22;1685;53.104;8.228;2023-03-01T04:11:26;-2.50;99.90
3344;DHT22;1685;53.104;8.228;2023-03-01T04:13:55;-2.60;99.90
3344;DHT22;1685;53.104;8.228;2023-03-01T04:18:50;-2.60;99.90
3344;DHT22;1685;53.104;8.228;2023-03-01T04:21:17;-2.70;99.90
3344;DHT22;1685;53.104;8.228;2023-03-01T04:23:45;-2.60;99.90
3344;DHT22;1685;53.104;8.228;2023-03-01T04:26:12;-2.60;99.90
3344;DHT22;1685;53.104;8.228;2023-03-01T04:28:41;-2.60;99.90
3344;DHT22;1685;53.104;8.228;2023-03-01T04:31:13;-2.60;99.90
3344;DHT22;1685;53.104;8.228;2023-03-01T04:33:41;-2.70;99.90
3344;DHT22;1685;53.104;8.228;2023-03-01T04:36:09;-2.60;99.90
3344;DHT22;1685;53.104;8.228;2023-03-01T04:38:37;-2.70;99.90
3344;DHT22;1685;53.104;8.228;2023-03-01T04:41:05;-2.70;99.90
3344;DHT22;1685;53.104;8.228;2023-03-01T04:46:05;-2.60;99.90
3344;DHT22;1685;53.104;8.228;2023-03-01T04:51:02;-2.70;99.90
3344;DHT22;1685;53.104;8.228;2023-03-01T04:53:29;-2.00;99.90
3344;DHT22;1685;53.104;8.228;2023-03-01T04:55:56;-2.60;99.90
3344;DHT22;1685;53.104;8.228;2023-03-01T04:58:23;-2.80;99.90
3344;DHT22;1685;53.104;8.228;2023-03-01T05:00:50;-2.70;99.90
3344;DHT22;1685;53.104;8.228;2023-03-01T05:03:19;-2.70;99.90
3344;DHT22;1685;53.104;8.228;2023-03-01T05:05:47;-2.80;99.90
3344;DHT22;1685;53.104;8.228;2023-03-01T05:08:15;-2.70;99.90
3344;DHT22;1685;53.104;8.228;2023-03-01T05:10:44;-2.80;99.90
3344;DHT22;1685;53.104;8.228;2023-03-01T05:13:13;-2.90;99.90
3344;DHT22;1685;53.104;8.228;2023-03-01T05:15:40;-2.80;99.90
3344;DHT22;1685;53.104;8.228;2023-03-01T05:18:07;-3.00;99.90
3344;DHT22;1685;53.104;8.228;2023-03-01T05:20:38;-2.80;99.90
3344;DHT22;1685;53.104;8.228;2023-03-01T05:23:05;-2.80;99.90
3344;DHT22;1685;53.104;8.228;2023-03-01T05:25:33;-2.80;99.90
3344;DHT22;1685;53.104;8.228;2023-03-01T05:28:00;-3.00;99.90
3344;DHT22;1685;53.104;8.228;2023-03-01T05:30:30;-3.00;99.90
3344;DHT22;1685;53.104;8.228;2023-03-01T05:32:58;-2.90;99.90
3344;DHT22;1685;53.104;8.228;2023-03-01T05:35:25;-3.00;99.90
3344;DHT22;1685;53.104;8.228;2023-03-01T05:37:53;-2.90;99.90
3344;DHT22;1685;53.104;8.228;2023-03-01T05:40:21;-3.10;99.90
3344;DHT22;1685;53.104;8.228;2023-03-01T05:42:51;-2.90;99.90
3344;DHT22;1685;53.104;8.228;2023-03-01T05:45:18;-3.00;99.90
3344;DHT22;1685;53.104;8.228;2023-03-01T05:47:47;-2.90;99.90
3344;DHT22;1685;53.104;8.228;2023-03-01T05:50:16;-2.90;99.90
3344;DHT22;1685;53.104;8.228;2023-03-01T05:52:45;-3.00;99.90
3344;DHT22;1685;53.104;8.228;2023-03-01T05:55:13;-3.10;99.90
3344;DHT22;1685;53.104;8.228;2023-03-01T05:57:40;-3.20;99.90
3344;DHT22;1685;53.104;8.228;2023-03-01T06:00:09;-3.00;99.90
3344;DHT22;1685;53.104;8.228;2023-03-01T06:02:36;-3.20;99.90
3344;DHT22;1685;53.104;8.228;2023-03-01T06:05:03;-2.90;99.90
3344;DHT22;1685;53.104;8.228;2023-03-01T06:07:31;-3.10;99.90
3344;DHT22;1685;53.104;8.228;2023-03-01T06:09:58;-3.10;99.90
3344;DHT22;1685;53.104;8.228;2023-03-01T06:12:26;-3.20;99.90
3344;DHT22;1685;53.104;8.228;2023-03-01T06:22:13;-3.20;99.90
3344;DHT22;1685;53.104;8.228;2023-03-01T06:27:07;-3.30;99.90
3344;DHT22;1685;53.104;8.228;2023-03-01T06:29:35;-2.00;99.90
3344;DHT22;1685;53.104;8.228;2023-03-01T06:39:23;-3.20;99.90
3344;DHT22;1685;53.104;8.228;2023-03-01T06:41:50;-3.10;99.90
3344;DHT22;1685;53.104;8.228;2023-03-01T06:46:45;-3.00;99.90
3344;DHT22;1685;53.104;8.228;2023-03-01T06:51:41;-3.10;99.90
3344;DHT22;1685;53.104;8.228;2023-03-01T07:01:29;-2.90;99.90
3344;DHT22;1685;53.104;8.228;2023-03-01T07:03:57;-2.90;99.90
3344;DHT22;1685;53.104;8.228;2023-03-01T07:21:12;-2.60;99.90
3344;DHT22;1685;53.104;8.228;2023-03-01T07:23:39;-2.80;99.90
3344;DHT22;1685;53.104;8.228;2023-03-01T07:31:02;-2.40;99.90
3344;DHT22;1685;53.104;8.228;2023-03-01T07:35:57;-2.30;99.90
3344;DHT22;1685;53.104;8.228;2023-03-01T07:38:26;-2.20;99.90
3344;DHT22;1685;53.104;8.228;2023-03-01T07:43:20;-2.10;99.90
3344;DHT22;1685;53.104;8.228;2023-03-01T07:53:08;-1.70;99.90
3344;DHT22;1685;53.104;8.228;2023-03-01T07:55:36;-1.70;99.90
3344;DHT22;1685;53.104;8.228;2023-03-01T08:02:59;-1.40;99.90
3344;DHT22;1685;53.104;8.228;2023-03-01T08:12:50;-0.70;99.90
3344;DHT22;1685;53.104;8.228;2023-03-01T08:25:05;0.10;99.90
3344;DHT22;1685;53.104;8.228;2023-03-01T08:30:01;0.20;99.90
3344;DHT22;1685;53.104;8.228;2023-03-01T08:39:48;0.90;99.90
3344;DHT22;1685;53.104;8.228;2023-03-01T08:47:10;1.70;99.90
3344;DHT22;1685;53.104;8.228;2023-03-01T08:54:31;1.50;99.90
3344;DHT22;1685;53.104;8.228;2023-03-01T08:57:01;1.80;99.90
3344;DHT22;1685;53.104;8.228;2023-03-01T08:59:28;2.20;99.90
3344;DHT22;1685;53.104;8.228;2023-03-01T09:04:24;2.40;99.90
3344;DHT22;1685;53.104;8.228;2023-03-01T09:09:17;3.00;99.90
3344;DHT22;1685;53.104;8.228;2023-03-01T09:11:44;3.00;99.90
3344;DHT22;1685;53.104;8.228;2023-03-01T09:21:34;3.60;99.90
3344;DHT22;1685;53.104;8.228;2023-03-01T09:28:56;4.00;99.90
3344;DHT22;1685;53.104;8.228;2023-03-01T09:31:24;4.20;99.90
3344;DHT22;1685;53.104;8.228;2023-03-01T09:33:52;4.40;99.90
3344;DHT22;1685;53.104;8.228;2023-03-01T09:36:22;4.60;99.90
3344;DHT22;1685;53.104;8.228;2023-03-01T09:38:50;4.70;99.90
3344;DHT22;1685;53.104;8.228;2023-03-01T09:41:44;4.60;99.90
3344;DHT22;1685;53.104;8.228;2023-03-01T09:44:19;4.80;99.90
3344;DHT22;1685;53.104;8.228;2023-03-01T09:46:47;4.70;99.90
3344;DHT22;1685;53.104;8.228;2023-03-01T09:49:17;4.80;99.90
3344;DHT22;1685;53.104;8.228;2023-03-01T09:51:57;4.60;99.90
3344;DHT22;1685;53.104;8.228;2023-03-01T09:54:26;4.80;99.90
3344;DHT22;1685;53.104;8.228;2023-03-01T09:57:14;4.90;99.90
3344;DHT22;1685;53.104;8.228;2023-03-01T10:02:31;5.20;99.90
3344;DHT22;1685;53.104;8.228;2023-03-01T10:05:05;5.20;99.90
3344;DHT22;1685;53.104;8.228;2023-03-01T10:07:42;5.40;99.90
3344;DHT22;1685;53.104;8.228;2023-03-01T10:10:25;5.40;99.90
3344;DHT22;1685;53.104;8.228;2023-03-01T10:12:53;5.50;99.90
3344;DHT22;1685;53.104;8.228;2023-03-01T10:15:28;5.60;99.90
3344;DHT22;1685;53.104;8.228;2023-03-01T10:18:03;5.60;99.90
3344;DHT22;1685;53.104;8.228;2023-03-01T10:20:42;5.80;99.90
3344;DHT22;1685;53.104;8.228;2023-03-01T10:25:47;6.00;99.90
3344;DHT22;1685;53.104;8.228;2023-03-01T10:28:25;6.00;99.90
3344;DHT22;1685;53.104;8.228;2023-03-01T10:30:52;6.00;99.90
3344;DHT22;1685;53.104;8.228;2023-03-01T10:33:22;6.00;99.90
3344;DHT22;1685;53.104;8.228;2023-03-01T10:38:18;6.40;99.90
3344;DHT22;1685;53.104;8.228;2023-03-01T10:40:54;6.50;99.90
3344;DHT22;1685;53.104;8.228;2023-03-01T10:48:18;6.40;99.90
3344;DHT22;1685;53.104;8.228;2023-03-01T10:50:48;6.40;99.90
3344;DHT22;1685;53.104;8.228;2023-03-01T10:53:23;6.40;99.90
3344;DHT22;1685;53.104;8.228;2023-03-01T10:55:59;6.60;99.90
3344;DHT22;1685;53.104;8.228;2023-03-01T11:00:55;6.60;99.90
3344;DHT22;1685;53.104;8.228;2023-03-01T11:03:23;6.70;99.90
3344;DHT22;1685;53.104;8.228;2023-03-01T11:05:56;6.80;99.90
3344;DHT22;1685;53.104;8.228;2023-03-01T11:08:40;6.90;99.90
3344;DHT22;1685;53.104;8.228;2023-03-01T11:11:31;6.70;99.90
3344;DHT22;1685;53.104;8.228;2023-03-01T11:13:59;6.70;99.90
3344;DHT22;1685;53.104;8.228;2023-03-01T11:16:30;6.80;99.90
3344;DHT22;1685;53.104;8.228;2023-03-01T11:19:00;6.80;99.90
3344;DHT22;1685;53.104;8.228;2023-03-01T11:21:29;6.60;99.90
3344;DHT22;1685;53.104;8.228;2023-03-01T11:23:58;6.80;99.90
3344;DHT22;1685;53.104;8.228;2023-03-01T11:26:28;6.80;99.90
3344;DHT22;1685;53.104;8.228;2023-03-01T11:29:02;6.70;99.90
3344;DHT22;1685;53.104;8.228;2023-03-01T11:34:01;6.70;99.90
3344;DHT22;1685;53.104;8.228;2023-03-01T11:36:34;6.70;99.90
3344;DHT22;1685;53.104;8.228;2023-03-01T11:39:05;6.70;99.90
3344;DHT22;1685;53.104;8.228;2023-03-01T11:41:39;6.60;99.90
3344;DHT22;1685;53.104;8.228;2023-03-01T11:44:16;6.70;99.90
3344;DHT22;1685;53.104;8.228;2023-03-01T11:46:57;7.00;99.90
3344;DHT22;1685;53.104;8.228;2023-03-01T11:52:27;6.80;99.90
3344;DHT22;1685;53.104;8.228;2023-03-01T11:55:14;6.80;99.90
3344;DHT22;1685;53.104;8.228;2023-03-01T11:58:05;7.20;99.90
3344;DHT22;1685;53.104;8.228;2023-03-01T12:00:57;7.50;99.90
3344;DHT22;1685;53.104;8.228;2023-03-01T12:03:32;7.10;99.90
3344;DHT22;1685;53.104;8.228;2023-03-01T12:06:16;7.00;99.90
3344;DHT22;1685;53.104;8.228;2023-03-01T12:08:56;7.10;99.90
3344;DHT22;1685;53.104;8.228;2023-03-01T12:11:36;6.90;99.90
3344;DHT22;1685;53.104;8.228;2023-03-01T12:14:19;7.10;99.90
3344;DHT22;1685;53.104;8.228;2023-03-01T12:20:12;6.50;99.90
3344;DHT22;1685;53.104;8.228;2023-03-01T12:23:03;6.70;99.90
3344;DHT22;1685;53.104;8.228;2023-03-01T12:25:34;6.80;99.90
3344;DHT22;1685;53.104;8.228;2023-03-01T12:28:28;6.90;99.90
3344;DHT22;1685;53.104;8.228;2023-03-01T12:31:26;7.20;99.90
3344;DHT22;1685;53.104;8.228;2023-03-01T12:34:05;7.30;99.90
3344;DHT22;1685;53.104;8.228;2023-03-01T12:37:02;7.30;99.90
3344;DHT22;1685;53.104;8.228;2023-03-01T12:39:43;7.10;99.90
3344;DHT22;1685;53.104;8.228;2023-03-01T12:42:20;7.00;99.90
3344;DHT22;1685;53.104;8.228;2023-03-01T12:44:59;7.10;99.90
3344;DHT22;1685;53.104;8.228;2023-03-01T12:47:43;7.10;99.90
3344;DHT22;1685;53.104;8.228;2023-03-01T12:50:19;7.50;99.90
3344;DHT22;1685;53.104;8.228;2023-03-01T12:52:50;7.50;99.90
3344;DHT22;1685;53.104;8.228;2023-03-01T12:55:28;7.50;99.90
3344;DHT22;1685;53.104;8.228;2023-03-01T12:58:06;7.40;99.90
3344;DHT22;1685;53.104;8.228;2023-03-01T13:00:40;7.50;99.90
3344;DHT22;1685;53.104;8.228;2023-03-01T13:03:19;7.50;99.90
3344;DHT22;1685;53.104;8.228;2023-03-01T13:06:00;7.40;99.90
3344;DHT22;1685;53.104;8.228;2023-03-01T13:08:34;7.40;99.90
3344;DHT22;1685;53.104;8.228;2023-03-01T13:11:05;7.60;99.90
3344;DHT22;1685;53.104;8.228;2023-03-01T13:16:21;7.60;99.90
3344;DHT22;1685;53.104;8.228;2023-03-01T13:19:06;7.70;99.90
3344;DHT22;1685;53.104;8.228;2023-03-01T13:21:33;7.60;99.90
3344;DHT22;1685;53.104;8.228;2023-03-01T13:28:55;7.80;99.90
3344;DHT22;1685;53.104;8.228;2023-03-01T13:34:57;7.80;99.90
3344;DHT22;1685;53.104;8.228;2023-03-01T13:37:30;7.70;99.90
3344;DHT22;1685;53.104;8.228;2023-03-01T13:39:59;7.60;99.90
3344;DHT22;1685;53.104;8.228;2023-03-01T13:42:39;7.70;99.90
3344;DHT22;1685;53.104;8.228;2023-03-01T13:45:20;7.60;99.90
3344;DHT22;1685;53.104;8.228;2023-03-01T13:47:49;7.60;99.90
3344;DHT22;1685;53.104;8.228;2023-03-01T13:50:22;7.50;99.90
3344;DHT22;1685;53.104;8.228;2023-03-01T13:52:53;7.50;99.90
3344;DHT22;1685;53.104;8.228;2023-03-01T13:55:24;7.50;99.90
3344;DHT22;1685;53.104;8.228;2023-03-01T13:57:55;7.60;99.90
3344;DHT22;1685;53.104;8.228;2023-03-01T14:00:36;7.70;99.90
3344;DHT22;1685;53.104;8.228;2023-03-01T14:03:05;7.70;99.90
3344;DHT22;1685;53.104;8.228;2023-03-01T14:05:36;7.90;99.90
3344;DHT22;1685;53.104;8.228;2023-03-01T14:10:36;8.10;99.90
3344;DHT22;1685;53.104;8.228;2023-03-01T14:13:20;7.60;99.90
3344;DHT22;1685;53.104;8.228;2023-03-01T14:15:59;7.80;99.90
3344;DHT22;1685;53.104;8.228;2023-03-01T14:18:33;7.60;99.90
3344;DHT22;1685;53.104;8.228;2023-03-01T14:21:07;7.50;99.90
3344;DHT22;1685;53.104;8.228;2023-03-01T14:28:31;7.80;99.90
3344;DHT22;1685;53.104;8.228;2023-03-01T14:31:00;7.80;99.90
3344;DHT22;1685;53.104;8.228;2023-03-01T14:33:28;7.80;99.90
3344;DHT22;1685;53.104;8.228;2023-03-01T14:35:58;7.90;99.90
3344;DHT22;1685;53.104;8.228;2023-03-01T14:38:32;7.80;99.90
3344;DHT22;1685;53.104;8.228;2023-03-01T14:41:03;7.70;99.90
3344;DHT22;1685;53.104;8.228;2023-03-01T14:43:31;7.70;99.90
3344;DHT22;1685;53.104;8.228;2023-03-01T14:48:27;7.80;99.90
3344;DHT22;1685;53.104;8.228;2023-03-01T14:53:24;7.70;99.90
3344;DHT22;1685;53.104;8.228;2023-03-01T14:55:54;7.80;99.90
3344;DHT22;1685;53.104;8.228;2023-03-01T14:58:23;7.90;99.90
3344;DHT22;1685;53.104;8.228;2023-03-01T15:00:52;7.80;99.90
3344;DHT22;1685;53.104;8.228;2023-03-01T15:03:26;7.80;99.90
3344;DHT22;1685;53.104;8.228;2023-03-01T15:08:23;7.80;99.90
3344;DHT22;1685;53.104;8.228;2023-03-01T15:11:02;7.70;99.90
3344;DHT22;1685;53.104;8.228;2023-03-01T15:13:31;7.80;99.90
3344;DHT22;1685;53.104;8.228;2023-03-01T15:16:07;7.70;99.90
3344;DHT22;1685;53.104;8.228;2023-03-01T15:21:07;7.70;99.90
3344;DHT22;1685;53.104;8.228;2023-03-01T15:23:36;7.70;99.90
3344;DHT22;1685;53.104;8.228;2023-03-01T15:26:16;7.80;99.90
3344;DHT22;1685;53.104;8.228;2023-03-01T15:28:51;7.70;99.90
3344;DHT22;1685;53.104;8.228;2023-03-01T15:31:20;7.50;99.90
3344;DHT22;1685;53.104;8.228;2023-03-01T15:36:32;7.50;99.90
3344;DHT22;1685;53.104;8.228;2023-03-01T15:39:01;7.50;99.90
3344;DHT22;1685;53.104;8.228;2023-03-01T15:41:31;7.50;99.90
3344;DHT22;1685;53.104;8.228;2023-03-01T15:43:59;7.40;99.90
3344;DHT22;1685;53.104;8.228;2023-03-01T15:46:28;7.40;99.90
3344;DHT22;1685;53.104;8.228;2023-03-01T15:48:58;7.30;99.90
3344;DHT22;1685;53.104;8.228;2023-03-01T15:51:32;7.10;99.90
3344;DHT22;1685;53.104;8.228;2023-03-01T15:54:02;7.60;99.90
3344;DHT22;1685;53.104;8.228;2023-03-01T15:56:31;7.20;99.90
3344;DHT22;1685;53.104;8.228;2023-03-01T15:59:00;7.40;99.90
3344;DHT22;1685;53.104;8.228;2023-03-01T16:06:23;7.10;99.90
3344;DHT22;1685;53.104;8.228;2023-03-01T16:11:19;7.10;99.90
3344;DHT22;1685;53.104;8.228;2023-03-01T16:13:47;7.10;99.90
3344;DHT22;1685;53.104;8.228;2023-03-01T16:16:16;7.00;99.90
3344;DHT22;1685;53.104;8.228;2023-03-01T16:18:44;6.90;99.90
3344;DHT22;1685;53.104;8.228;2023-03-01T16:21:16;7.40;99.90
3344;DHT22;1685;53.104;8.228;2023-03-01T16:26:13;6.80;99.90
3344;DHT22;1685;53.104;8.228;2023-03-01T16:28:40;6.80;99.90
3344;DHT22;1685;53.104;8.228;2023-03-01T16:31:08;6.70;99.90
3344;DHT22;1685;53.104;8.228;2023-03-01T16:36:07;6.80;99.90
3344;DHT22;1685;53.104;8.228;2023-03-01T16:43:29;6.60;99.90
3344;DHT22;1685;53.104;8.228;2023-03-01T16:45:55;6.70;99.90
3344;DHT22;1685;53.104;8.228;2023-03-01T16:48:24;6.10;99.90
3344;DHT22;1685;53.104;8.228;2023-03-01T16:50:58;6.50;99.90
3344;DHT22;1685;53.104;8.228;2023-03-01T16:55:55;6.30;99.90
3344;DHT22;1685;53.104;8.228;2023-03-01T17:00:51;6.20;99.90
3344;DHT22;1685;53.104;8.228;2023-03-01T17:05:47;6.10;99.90
3344;DHT22;1685;53.104;8.228;2023-03-01T17:15:38;5.70;99.90
3344;DHT22;1685;53.104;8.228;2023-03-01T17:20:31;5.60;99.90
3344;DHT22;1685;53.104;8.228;2023-03-01T17:23:00;5.60;99.90
3344;DHT22;1685;53.104;8.228;2023-03-01T17:30:20;5.20;99.90
3344;DHT22;1685;53.104;8.228;2023-03-01T17:35:14;5.20;99.90
3344;DHT22;1685;53.104;8.228;2023-03-01T17:40:12;5.50;99.90
3344;DHT22;1685;53.104;8.228;2023-03-01T17:45:07;5.10;99.90
3344;DHT22;1685;53.104;8.228;2023-03-01T17:52:30;4.90;99.90
3344;DHT22;1685;53.104;8.228;2023-03-01T17:57:25;4.50;99.90
3344;DHT22;1685;53.104;8.228;2023-03-01T18:12:07;4.20;99.90
3344;DHT22;1685;53.104;8.228;2023-03-01T18:14:36;4.10;99.90
3344;DHT22;1685;53.104;8.228;2023-03-01T18:17:03;3.90;99.90
3344;DHT22;1685;53.104;8.228;2023-03-01T18:31:54;3.60;99.90
3344;DHT22;1685;53.104;8.228;2023-03-01T18:49:07;3.60;99.90
3344;DHT22;1685;53.104;8.228;2023-03-01T18:56:29;3.10;99.90
3344;DHT22;1685;53.104;8.228;2023-03-01T19:01:25;3.10;99.90
3344;DHT22;1685;53.104;8.228;2023-03-01T19:06:21;3.10;99.90
3344;DHT22;1685;53.104;8.228;2023-03-01T19:13:44;3.00;99.90
3344;DHT22;1685;53.104;8.228;2023-03-01T19:16:13;3.00;99.90
3344;DHT22;1685;53.104;8.228;2023-03-01T19:18:42;3.00;99.90
3344;DHT22;1685;53.104;8.228;2023-03-01T19:23:43;3.10;99.90
3344;DHT22;1685;53.104;8.228;2023-03-01T19:26:11;2.90;99.90
3344;DHT22;1685;53.104;8.228;2023-03-01T19:31:07;2.80;99.90
3344;DHT22;1685;53.104;8.228;2023-03-01T19:36:02;2.80;99.90
3344;DHT22;1685;53.104;8.228;2023-03-01T19:40:58;2.80;99.90
3344;DHT22;1685;53.104;8.228;2023-03-01T19:45:56;2.80;99.90
3344;DHT22;1685;53.104;8.228;2023-03-01T19:50:51;2.70;99.90
3344;DHT22;1685;53.104;8.228;2023-03-01T19:53:18;2.60;99.90
3344;DHT22;1685;53.104;8.228;2023-03-01T19:58:15;2.70;99.90
3344;DHT22;1685;53.104;8.228;2023-03-01T20:00:45;2.50;99.90
3344;DHT22;1685;53.104;8.228;2023-03-01T20:15:30;2.40;99.90
3344;DHT22;1685;53.104;8.228;2023-03-01T20:25:18;2.20;99.90
3344;DHT22;1685;53.104;8.228;2023-03-01T20:30:13;2.30;99.90
3344;DHT22;1685;53.104;8.228;2023-03-01T20:32:41;2.30;99.90
3344;DHT22;1685;53.104;8.228;2023-03-01T20:35:09;2.10;99.90
3344;DHT22;1685;53.104;8.228;2023-03-01T20:40:04;2.30;99.90
3344;DHT22;1685;53.104;8.228;2023-03-01T20:49:53;2.30;99.90
3344;DHT22;1685;53.104;8.228;2023-03-01T21:02:09;2.20;99.90
3344;DHT22;1685;53.104;8.228;2023-03-01T21:04:36;2.20;99.90
3344;DHT22;1685;53.104;8.228;2023-03-01T21:07:04;2.10;99.90
3344;DHT22;1685;53.104;8.228;2023-03-01T21:21:46;1.80;99.90
3344;DHT22;1685;53.104;8.228;2023-03-01T21:24:14;1.90;99.90
3344;DHT22;1685;53.104;8.228;2023-03-01T21:31:35;1.90;99.90
3344;DHT22;1685;53.104;8.228;2023-03-01T21:34:04;2.00;99.90
3344;DHT22;1685;53.104;8.228;2023-03-01T21:36:32;1.90;99.90
3344;DHT22;1685;53.104;8.228;2023-03-01T21:38:59;1.90;99.90
3344;DHT22;1685;53.104;8.228;2023-03-01T21:41:29;2.00;99.90
3344;DHT22;1685;53.104;8.228;2023-03-01T21:43:58;1.80;99.90
3344;DHT22;1685;53.104;8.228;2023-03-01T21:46:29;1.80;99.90
3344;DHT22;1685;53.104;8.228;2023-03-01T21:51:26;1.90;99.90
3344;DHT22;1685;53.104;8.228;2023-03-01T21:53:54;1.80;99.90
3344;DHT22;1685;53.104;8.228;2023-03-01T21:56:22;1.90;99.90
3344;DHT22;1685;53.104;8.228;2023-03-01T21:58:51;1.70;99.90
3344;DHT22;1685;53.104;8.228;2023-03-01T22:01:20;1.80;99.90
3344;DHT22;1685;53.104;8.228;2023-03-01T22:03:49;1.80;99.90
3344;DHT22;1685;53.104;8.228;2023-03-01T22:06:17;1.80;99.90
3344;DHT22;1685;53.104;8.228;2023-03-01T22:08:46;1.80;99.90
3344;DHT22;1685;53.104;8.228;2023-03-01T22:11:12;1.70;99.90
3344;DHT22;1685;53.104;8.228;2023-03-01T22:16:08;1.80;99.90
3344;DHT22;1685;53.104;8.228;2023-03-01T22:18:35;1.90;99.90
3344;DHT22;1685;53.104;8.228;2023-03-01T22:21:03;1.90;99.90
3344;DHT22;1685;53.104;8.228;2023-03-01T22:23:30;1.90;99.90
3344;DHT22;1685;53.104;8.228;2023-03-01T22:25:57;1.80;99.90
3344;DHT22;1685;53.104;8.228;2023-03-01T22:28:24;1.90;99.90
3344;DHT22;1685;53.104;8.228;2023-03-01T22:33:19;1.90;99.90
3344;DHT22;1685;53.104;8.228;2023-03-01T22:50:30;1.90;99.90
3344;DHT22;1685;53.104;8.228;2023-03-01T22:55:26;1.70;99.90
3344;DHT22;1685;53.104;8.228;2023-03-01T23:00:21;1.90;99.90
3344;DHT22;1685;53.104;8.228;2023-03-01T23:07:43;1.50;99.90
3344;DHT22;1685;53.104;8.228;2023-03-01T23:10:12;1.70;99.90
3344;DHT22;1685;53.104;8.228;2023-03-01T23:15:07;2.30;99.90
3344;DHT22;1685;53.104;8.228;2023-03-01T23:22:32;1.70;99.90
3344;DHT22;1685;53.104;8.228;2023-03-01T23:25:00;1.60;99.90
3344;DHT22;1685;53.104;8.228;2023-03-01T23:27:26;1.70;99.90
3344;DHT22;1685;53.104;8.228;2023-03-01T23:42:11;1.60;99.90
3344;DHT22;1685;53.104;8.228;2023-03-01T23:54:27;1.50;99.90
3344;DHT22;1685;53.104;8.228;2023-03-01T23:56:54;1.60;99.90
3344;DHT22;1685;53.104;8.228;2023-03-01T23:59:23;1.60;99.90
